Time;durP1;ratioP1;P1;durP2;ratioP2;P2;SDS_P1;SDS_P2;PMS_P1;PMS_P2;Temp;Humidity;BMP_temperature;BMP_pressure;BME280_temperature;BME280_humidity;BME280_pressure;Samples;Min_cycle;Max_cycle;Signal;HPM_P1;HPM_P2
2022/01/10 00:00:38;;;;;;;5.27;1.67;;;4.40;99.90;;;;;;5084330;28;20462;-84
2022/01/10 00:03:04;;;;;;;8.03;2.03;;;4.40;99.90;;;;;;5081330;28;20410;-86
2022/01/10 00:05:30;;;;;;;4.90;1.60;;;4.40;99.90;;;;;;5084461;28;20399;-87
2022/01/10 00:07:56;;;;;;;6.33;1.40;;;4.30;99.90;;;;;;5090731;28;20411;-87
2022/01/10 00:10:21;;;;;;;5.27;2.23;;;4.30;99.90;;;;;;5087754;28;20275;-88
2022/01/10 00:12:47;;;;;;;5.50;1.50;;;4.20;99.90;;;;;;5078084;28;20214;-87
2022/01/10 00:15:16;;;;;;;14.07;2.13;;;4.20;99.90;;;;;;5078038;28;20519;-87
2022/01/10 00:17:42;;;;;;;4.27;1.33;;;4.10;99.90;;;;;;5077092;28;20263;-86
2022/01/10 00:20:10;;;;;;;6.83;1.00;;;4.10;99.90;;;;;;5076075;28;20425;-87
2022/01/10 00:22:36;;;;;;;7.10;2.30;;;4.00;99.90;;;;;;5075668;28;20474;-87
2022/01/10 00:25:06;;;;;;;5.47;1.60;;;4.00;99.90;;;;;;5076088;28;20426;-87
2022/01/10 00:27:31;;;;;;;6.40;1.70;;;4.00;99.90;;;;;;5076313;28;20426;-87
2022/01/10 00:29:57;;;;;;;10.97;2.20;;;3.90;99.90;;;;;;5076647;28;20411;-86
2022/01/10 00:32:23;;;;;;;4.10;1.47;;;3.80;99.90;;;;;;5075793;28;20173;-87
2022/01/10 00:34:49;;;;;;;5.10;1.37;;;3.80;99.90;;;;;;5074509;28;20181;-87
2022/01/10 00:37:15;;;;;;;15.33;2.00;;;3.70;99.90;;;;;;5075427;28;20426;-87
2022/01/10 00:39:41;;;;;;;10.57;1.97;;;3.70;99.90;;;;;;5075248;28;20419;-87
2022/01/10 00:42:06;;;;;;;13.63;2.27;;;3.70;99.90;;;;;;5073912;28;20581;-87
2022/01/10 00:44:37;;;;;;;4.17;1.13;;;3.70;99.90;;;;;;5075275;28;20593;-87
2022/01/10 00:47:03;;;;;;;4.80;1.57;;;3.60;99.90;;;;;;5078560;28;20165;-89
2022/01/10 00:49:29;;;;;;;8.27;1.83;;;3.60;99.90;;;;;;5081322;28;20415;-89
2022/01/10 00:51:54;;;;;;;3.73;1.17;;;3.60;99.90;;;;;;5083692;28;20408;-89
2022/01/10 00:54:20;;;;;;;6.77;1.97;;;3.70;99.90;;;;;;5078715;28;20173;-89
2022/01/10 00:56:46;;;;;;;4.80;1.43;;;3.80;99.90;;;;;;5079156;28;20169;-88
2022/01/10 00:59:11;;;;;;;8.40;2.30;;;3.90;99.90;;;;;;5079233;28;20260;-88
2022/01/10 01:01:37;;;;;;;8.70;2.13;;;4.00;99.90;;;;;;5080788;28;20283;-89
2022/01/10 01:04:03;;;;;;;8.37;2.10;;;4.00;99.90;;;;;;5086512;28;20165;-89
2022/01/10 01:06:28;;;;;;;8.40;2.03;;;4.00;99.90;;;;;;5084201;28;20253;-90
2022/01/10 01:08:59;;;;;;;6.80;1.57;;;4.00;99.90;;;;;;5088362;28;20170;-89
2022/01/10 01:12:02;;;;;;;5.90;1.60;;;4.10;99.90;;;;;;5087435;28;20613;-89
2022/01/10 01:15:18;;;;;;;5.70;1.00;;;4.10;99.90;;;;;;5081588;28;20479;-89
2022/01/10 01:20:21;;;;;;;9.63;1.93;;;4.10;99.90;;;;;;5066230;28;20415;-89
2022/01/10 01:25:31;;;;;;;5.67;1.73;;;4.20;99.90;;;;;;5072794;28;20402;-89
2022/01/10 01:27:56;;;;;;;7.17;1.67;;;4.20;99.90;;;;;;5074522;28;20423;-89
2022/01/10 01:30:22;;;;;;;9.90;1.83;;;4.20;99.90;;;;;;5074845;28;20657;-90
2022/01/10 01:32:48;;;;;;;4.53;1.17;;;4.20;99.90;;;;;;5074789;28;20177;-89
2022/01/10 01:35:23;;;;;;;10.07;1.97;;;4.20;99.90;;;;;;5074540;28;20649;-90
2022/01/10 01:37:49;;;;;;;8.73;2.70;;;4.30;99.90;;;;;;5075294;28;20460;-89
2022/01/10 01:40:14;;;;;;;11.53;1.53;;;4.30;99.90;;;;;;5076492;28;20408;-90
2022/01/10 01:42:47;;;;;;;4.37;1.57;;;4.30;99.90;;;;;;5077206;28;20189;-88
2022/01/10 01:45:15;;;;;;;6.93;1.77;;;4.30;99.90;;;;;;5079419;28;20173;-89
2022/01/10 01:47:43;;;;;;;7.80;1.70;;;4.30;99.90;;;;;;5076097;28;20422;-90
2022/01/10 01:50:09;;;;;;;5.90;1.53;;;4.30;99.90;;;;;;5074184;28;20419;-89
2022/01/10 01:52:35;;;;;;;7.40;1.33;;;4.40;99.90;;;;;;5073382;28;20416;-89
2022/01/10 01:55:01;;;;;;;6.10;1.80;;;4.40;99.90;;;;;;5075115;28;20517;-89
2022/01/10 01:57:27;;;;;;;8.00;1.90;;;4.40;99.90;;;;;;5075174;28;20284;-89
2022/01/10 01:59:53;;;;;;;3.60;1.20;;;4.40;99.90;;;;;;5073629;28;20176;-90
2022/01/10 02:02:18;;;;;;;8.90;2.77;;;4.40;99.90;;;;;;5074854;28;20482;-90
2022/01/10 02:04:44;;;;;;;10.20;2.20;;;4.40;99.90;;;;;;5074616;28;20172;-90
2022/01/10 02:07:10;;;;;;;4.23;1.80;;;4.40;99.90;;;;;;5074033;28;20188;-89
2022/01/10 02:09:35;;;;;;;14.00;3.30;;;4.40;99.90;;;;;;5073573;28;20264;-89
2022/01/10 02:12:01;;;;;;;7.67;3.23;;;4.40;99.90;;;;;;5073402;28;20234;-85
2022/01/10 02:14:33;;;;;;;6.73;2.33;;;4.40;99.90;;;;;;5075038;28;20179;-90
2022/01/10 02:16:59;;;;;;;10.20;2.33;;;4.40;99.90;;;;;;5075138;28;20426;-90
2022/01/10 02:19:24;;;;;;;10.80;2.43;;;4.40;99.90;;;;;;5074688;28;20420;-90
2022/01/10 02:21:50;;;;;;;8.83;2.13;;;4.40;99.90;;;;;;5074130;28;20635;-89
2022/01/10 02:24:16;;;;;;;11.20;2.80;;;4.40;99.90;;;;;;5074804;28;20193;-87
2022/01/10 02:26:50;;;;;;;7.03;2.90;;;4.30;99.90;;;;;;5074790;28;20897;-89
2022/01/10 02:29:16;;;;;;;6.97;2.70;;;4.40;99.90;;;;;;5073356;28;20427;-90
2022/01/10 02:31:45;;;;;;;10.67;3.73;;;4.40;99.90;;;;;;5074703;28;20418;-90
2022/01/10 02:34:13;;;;;;;21.93;5.40;;;4.40;99.90;;;;;;5073345;28;20938;-89
2022/01/10 02:36:38;;;;;;;14.63;5.43;;;4.40;99.90;;;;;;5074295;28;20411;-89
2022/01/10 02:39:08;;;;;;;11.97;3.40;;;4.50;99.90;;;;;;5074814;28;20516;-85
2022/01/10 02:41:37;;;;;;;15.03;4.93;;;4.50;99.90;;;;;;5074764;28;20196;-88
2022/01/10 02:44:07;;;;;;;10.93;4.93;;;4.50;99.90;;;;;;5074350;28;20423;-87
2022/01/10 02:46:35;;;;;;;13.47;5.20;;;4.50;99.90;;;;;;5074175;28;20424;-89
2022/01/10 02:49:06;;;;;;;12.53;4.10;;;4.40;99.90;;;;;;5074418;28;20492;-90
2022/01/10 02:51:31;;;;;;;13.93;5.20;;;4.40;99.90;;;;;;5074266;28;20427;-90
2022/01/10 02:53:57;;;;;;;12.47;4.70;;;4.40;99.90;;;;;;5073199;28;20529;-88
2022/01/10 02:56:22;;;;;;;7.27;4.27;;;4.40;99.90;;;;;;5073202;28;20189;-90
2022/01/10 02:58:51;;;;;;;10.07;4.90;;;4.40;99.90;;;;;;5073557;28;20177;-91
2022/01/10 03:01:16;;;;;;;13.50;4.70;;;4.40;99.90;;;;;;5073447;28;20219;-90
2022/01/10 03:03:44;;;;;;;12.27;4.87;;;4.40;99.90;;;;;;5073704;28;20408;-89
2022/01/10 03:06:11;;;;;;;9.50;4.40;;;4.30;99.90;;;;;;5071906;28;20599;-87
2022/01/10 03:08:39;;;;;;;10.67;5.60;;;4.40;99.90;;;;;;5072347;28;20452;-88
2022/01/10 03:11:05;;;;;;;17.57;5.83;;;4.40;99.90;;;;;;5073495;28;20412;-88
2022/01/10 03:13:30;;;;;;;9.00;5.70;;;4.40;99.90;;;;;;5073528;28;20973;-89
2022/01/10 03:15:56;;;;;;;9.20;3.90;;;4.40;99.90;;;;;;5072865;28;20222;-89
2022/01/10 03:18:22;;;;;;;9.00;4.93;;;4.40;99.90;;;;;;5073391;28;20230;-88
2022/01/10 03:20:48;;;;;;;13.63;4.83;;;4.40;99.90;;;;;;5072033;28;20471;-89
2022/01/10 03:23:13;;;;;;;13.53;4.43;;;4.50;99.90;;;;;;5073319;28;20231;-87
2022/01/10 03:25:39;;;;;;;10.73;4.27;;;4.50;99.90;;;;;;5073225;28;20173;-88
2022/01/10 03:28:06;;;;;;;12.20;6.03;;;4.50;99.90;;;;;;5073333;28;20251;-88
2022/01/10 03:30:33;;;;;;;12.13;5.60;;;4.50;99.90;;;;;;5072027;28;20165;-88
2022/01/10 03:33:01;;;;;;;10.10;3.87;;;4.50;99.90;;;;;;5072041;28;20443;-88
2022/01/10 03:35:27;;;;;;;9.50;4.17;;;4.50;99.90;;;;;;5071901;28;20485;-87
2022/01/10 03:37:53;;;;;;;8.57;4.80;;;4.50;99.90;;;;;;5073311;28;20411;-87
2022/01/10 03:40:19;;;;;;;9.10;3.77;;;4.50;99.90;;;;;;5072057;28;20176;-88
2022/01/10 03:42:45;;;;;;;12.60;3.80;;;4.50;99.90;;;;;;5073251;28;20440;-88
2022/01/10 03:45:11;;;;;;;12.10;4.30;;;4.50;99.90;;;;;;5072291;28;20498;-87
2022/01/10 03:47:36;;;;;;;8.97;4.90;;;4.50;99.90;;;;;;5073326;28;20165;-88
2022/01/10 03:50:04;;;;;;;8.00;3.93;;;4.50;99.90;;;;;;5071765;28;20191;-89
2022/01/10 03:52:30;;;;;;;9.60;4.13;;;4.50;99.90;;;;;;5071715;28;20173;-88
2022/01/10 03:54:55;;;;;;;8.23;3.53;;;4.50;99.90;;;;;;5071663;28;20423;-89
2022/01/10 03:57:21;;;;;;;7.60;3.67;;;4.50;99.90;;;;;;5072003;28;20264;-89
2022/01/10 03:59:49;;;;;;;11.80;6.43;;;4.40;99.90;;;;;;5072409;28;20282;-89
2022/01/10 04:02:15;;;;;;;17.20;7.53;;;4.30;99.90;;;;;;5071785;28;20209;-88
2022/01/10 04:04:40;;;;;;;22.57;7.37;;;4.10;99.90;;;;;;5072156;28;20914;-88
2022/01/10 04:07:06;;;;;;;16.90;6.00;;;4.00;99.90;;;;;;5071764;28;20177;-88
2022/01/10 04:09:32;;;;;;;14.13;7.23;;;3.90;99.90;;;;;;5071840;28;20177;-89
2022/01/10 04:11:57;;;;;;;15.43;6.47;;;3.90;99.90;;;;;;5071973;28;20203;-89
2022/01/10 04:14:23;;;;;;;17.53;6.30;;;3.80;99.90;;;;;;5071959;28;20181;-87
2022/01/10 04:16:49;;;;;;;14.57;5.00;;;3.80;99.90;;;;;;5071975;28;20208;-90
2022/01/10 04:19:15;;;;;;;13.43;5.83;;;3.70;99.90;;;;;;5071995;28;20176;-90
2022/01/10 04:21:40;;;;;;;12.57;5.67;;;3.70;99.90;;;;;;5071257;28;20474;-89
2022/01/10 04:24:06;;;;;;;12.23;5.50;;;3.70;99.90;;;;;;5071606;28;20300;-88
2022/01/10 04:26:32;;;;;;;12.33;5.23;;;3.80;99.90;;;;;;5072754;28;20641;-87
2022/01/10 04:28:57;;;;;;;12.53;5.27;;;3.70;99.90;;;;;;5071846;28;20169;-88
2022/01/10 04:31:23;;;;;;;14.73;4.70;;;3.60;99.90;;;;;;5075457;28;20222;-88
2022/01/10 04:33:48;;;;;;;7.27;3.80;;;3.70;99.90;;;;;;5075359;28;20169;-89
2022/01/10 04:36:14;;;;;;;8.53;4.03;;;3.60;99.90;;;;;;5074725;28;20200;-90
2022/01/10 04:38:42;;;;;;;8.17;4.13;;;3.50;99.90;;;;;;5075148;28;20172;-90
2022/01/10 04:41:09;;;;;;;6.40;3.70;;;3.60;99.90;;;;;;5075085;28;20252;-90
2022/01/10 04:43:35;;;;;;;7.57;4.07;;;3.60;99.90;;;;;;5074944;28;20420;-89
2022/01/10 04:46:01;;;;;;;4.60;2.70;;;3.50;99.90;;;;;;5074811;28;20450;-89
2022/01/10 04:48:26;;;;;;;7.00;2.90;;;3.60;99.90;;;;;;5074801;28;20455;-89
2022/01/10 04:53:23;;;;;;;7.07;3.23;;;3.60;99.90;;;;;;5075837;28;20253;-89
2022/01/10 04:55:49;;;;;;;5.70;2.77;;;3.70;99.90;;;;;;5074354;28;20447;-88
2022/01/10 04:58:15;;;;;;;5.07;2.43;;;3.60;99.90;;;;;;5074455;28;20176;-88
2022/01/10 05:00:40;;;;;;;10.00;3.20;;;3.60;99.90;;;;;;5074054;28;20197;-88
2022/01/10 05:03:06;;;;;;;5.43;3.50;;;3.50;99.90;;;;;;5074075;28;20551;-88
2022/01/10 05:05:31;;;;;;;5.40;3.37;;;3.50;99.90;;;;;;5073747;28;20177;-87
2022/01/10 05:07:57;;;;;;;6.33;2.90;;;3.60;99.90;;;;;;5074095;28;20177;-88
2022/01/10 05:10:22;;;;;;;5.13;3.50;;;3.60;99.90;;;;;;5074023;28;20168;-88
2022/01/10 05:12:48;;;;;;;7.27;4.17;;;3.50;99.90;;;;;;5074106;28;20184;-87
2022/01/10 05:15:14;;;;;;;6.10;3.37;;;3.50;99.90;;;;;;5074047;28;20169;-88
2022/01/10 05:17:39;;;;;;;4.80;3.00;;;3.50;99.90;;;;;;5075376;28;20183;-88
2022/01/10 05:20:06;;;;;;;7.80;4.00;;;3.50;99.90;;;;;;5073759;28;20251;-88
2022/01/10 05:22:31;;;;;;;4.97;3.10;;;3.40;99.90;;;;;;5073907;28;20727;-89
2022/01/10 05:24:57;;;;;;;6.73;3.93;;;3.40;99.90;;;;;;5074511;28;20427;-89
2022/01/10 05:27:22;;;;;;;8.67;5.03;;;3.50;99.90;;;;;;5074551;28;20200;-89
2022/01/10 05:29:48;;;;;;;8.90;6.20;;;3.50;99.90;;;;;;5074699;28;20535;-89
2022/01/10 05:32:16;;;;;;;6.77;4.57;;;3.40;99.90;;;;;;5074774;28;20256;-87
2022/01/10 05:35:02;;;;;;;7.23;5.10;;;3.40;99.90;;;;;;5074158;28;20180;-90
2022/01/10 05:37:28;;;;;;;15.50;4.60;;;3.40;99.90;;;;;;5074120;28;20939;-89
2022/01/10 05:39:53;;;;;;;7.00;4.60;;;3.40;99.90;;;;;;5074089;28;20404;-88
2022/01/10 05:42:20;;;;;;;8.17;5.17;;;3.40;99.90;;;;;;5074509;28;20221;-89
2022/01/10 05:44:45;;;;;;;6.70;5.37;;;3.40;99.90;;;;;;5074320;28;20176;-90
2022/01/10 05:47:11;;;;;;;7.17;4.97;;;3.40;99.90;;;;;;5074518;28;20498;-89
2022/01/10 05:49:44;;;;;;;6.50;4.30;;;3.40;99.90;;;;;;5074051;28;20183;-90
2022/01/10 05:52:12;;;;;;;7.13;5.40;;;3.40;99.90;;;;;;5075172;28;20253;-89
2022/01/10 05:54:38;;;;;;;9.53;6.10;;;3.30;99.90;;;;;;5074245;28;20419;-90
2022/01/10 05:57:05;;;;;;;9.13;6.83;;;3.30;99.90;;;;;;5074651;28;20411;-86
2022/01/10 05:59:31;;;;;;;9.00;5.27;;;3.30;99.90;;;;;;5073534;28;20430;-87
2022/01/10 06:01:58;;;;;;;9.33;5.50;;;3.30;99.90;;;;;;5073522;28;20497;-88
2022/01/10 06:04:23;;;;;;;7.90;4.80;;;3.30;99.90;;;;;;5073487;28;20532;-88
2022/01/10 06:06:49;;;;;;;8.33;5.30;;;3.40;99.90;;;;;;5073327;28;20415;-87
2022/01/10 06:09:15;;;;;;;8.83;6.30;;;3.40;99.90;;;;;;5074808;28;20173;-88
2022/01/10 06:11:40;;;;;;;9.77;6.70;;;3.40;99.90;;;;;;5073782;28;20543;-88
2022/01/10 06:14:07;;;;;;;9.67;5.67;;;3.40;99.90;;;;;;5073329;28;20225;-87
2022/01/10 06:16:33;;;;;;;8.13;6.00;;;3.40;99.90;;;;;;5074704;28;20169;-88
2022/01/10 06:18:59;;;;;;;10.03;6.37;;;3.40;99.90;;;;;;5075218;28;20491;-88
2022/01/10 06:21:24;;;;;;;7.33;5.70;;;3.50;99.90;;;;;;5074553;28;20550;-88
2022/01/10 06:23:50;;;;;;;8.30;5.13;;;3.50;99.90;;;;;;5073564;28;20582;-88
2022/01/10 06:26:15;;;;;;;9.13;6.70;;;3.50;99.90;;;;;;5073671;28;20180;-88
2022/01/10 06:28:41;;;;;;;6.57;5.10;;;3.50;99.90;;;;;;5074533;28;20172;-89
2022/01/10 06:31:06;;;;;;;11.37;6.37;;;3.50;99.90;;;;;;5073633;28;20192;-87
2022/01/10 06:33:32;;;;;;;7.50;5.13;;;3.50;99.90;;;;;;5075165;28;20610;-90
2022/01/10 06:35:57;;;;;;;7.87;4.83;;;3.60;99.90;;;;;;5083155;28;20187;-88
2022/01/10 06:38:23;;;;;;;10.93;6.93;;;3.60;99.90;;;;;;5076757;28;20191;-89
2022/01/10 06:40:48;;;;;;;7.70;4.93;;;3.60;99.90;;;;;;5076638;28;20196;-88
2022/01/10 06:43:14;;;;;;;9.53;5.57;;;3.60;99.90;;;;;;5075911;28;20195;-88
2022/01/10 06:45:45;;;;;;;10.23;5.70;;;3.60;99.90;;;;;;5075399;28;20221;-88
2022/01/10 06:48:11;;;;;;;9.30;5.60;;;3.50;99.90;;;;;;5073903;28;20173;-88
2022/01/10 06:50:38;;;;;;;7.50;6.37;;;3.40;99.90;;;;;;5072432;28;20435;-89
2022/01/10 06:53:03;;;;;;;10.07;6.10;;;3.30;99.90;;;;;;5072528;28;20200;-88
2022/01/10 06:55:29;;;;;;;8.87;5.87;;;3.40;99.90;;;;;;5074045;28;20406;-88
2022/01/10 06:57:55;;;;;;;8.90;6.50;;;3.50;99.90;;;;;;5072601;28;20176;-86
2022/01/10 07:00:20;;;;;;;7.50;6.40;;;3.50;99.90;;;;;;5072471;28;20168;-88
2022/01/10 07:02:46;;;;;;;8.10;6.23;;;3.50;99.90;;;;;;5071587;28;20242;-89
2022/01/10 07:05:12;;;;;;;7.73;5.60;;;3.50;99.90;;;;;;5072559;28;20254;-89
2022/01/10 07:07:37;;;;;;;10.83;7.20;;;3.50;99.90;;;;;;5072573;28;20177;-88
2022/01/10 07:10:04;;;;;;;9.03;6.23;;;3.50;99.90;;;;;;5071319;28;20993;-89
2022/01/10 07:12:30;;;;;;;8.67;6.60;;;3.60;99.90;;;;;;5071511;28;20532;-85
2022/01/10 07:14:55;;;;;;;12.80;7.40;;;3.60;99.90;;;;;;5072300;28;20417;-86
2022/01/10 07:17:21;;;;;;;9.50;5.73;;;3.50;99.90;;;;;;5072009;28;20248;-86
2022/01/10 07:19:56;;;;;;;8.40;5.50;;;3.50;99.90;;;;;;5071331;28;20209;-89
2022/01/10 07:22:22;;;;;;;10.47;7.77;;;3.60;99.90;;;;;;5073492;28;20219;-87
2022/01/10 07:24:47;;;;;;;16.37;6.90;;;3.50;99.90;;;;;;5073657;28;20403;-88
2022/01/10 07:27:13;;;;;;;8.03;6.40;;;3.50;99.90;;;;;;5072778;28;20240;-89
2022/01/10 07:29:39;;;;;;;10.27;6.77;;;3.40;99.90;;;;;;5073707;28;20173;-89
2022/01/10 07:32:08;;;;;;;12.20;7.30;;;3.40;99.90;;;;;;5072484;28;20202;-88
2022/01/10 07:34:34;;;;;;;9.77;6.20;;;3.40;99.90;;;;;;5072438;28;20420;-89
2022/01/10 07:36:59;;;;;;;9.73;5.93;;;3.40;99.90;;;;;;5071231;28;20553;-87
2022/01/10 07:39:25;;;;;;;9.37;6.50;;;3.40;99.90;;;;;;5072936;28;20172;-86
2022/01/10 07:41:51;;;;;;;10.73;7.07;;;3.40;99.90;;;;;;5072474;28;20463;-85
2022/01/10 07:44:16;;;;;;;11.73;7.20;;;3.40;99.90;;;;;;5072734;28;20173;-85
2022/01/10 07:46:42;;;;;;;9.73;6.57;;;3.40;99.90;;;;;;5072660;28;20497;-87
2022/01/10 07:49:07;;;;;;;14.20;9.70;;;3.40;99.90;;;;;;5072613;28;20166;-85
2022/01/10 07:51:33;;;;;;;14.50;9.07;;;3.30;99.90;;;;;;5070987;28;20206;-87
2022/01/10 07:53:59;;;;;;;14.40;9.77;;;3.30;99.90;;;;;;5071323;28;20176;-86
2022/01/10 07:56:25;;;;;;;14.13;9.37;;;3.30;99.90;;;;;;5073010;28;20199;-85
2022/01/10 07:58:54;;;;;;;16.83;9.17;;;3.30;99.90;;;;;;5071735;28;20411;-86
2022/01/10 08:01:20;;;;;;;19.97;11.87;;;3.30;99.90;;;;;;5072598;28;21144;-85
2022/01/10 08:03:47;;;;;;;16.00;9.23;;;3.30;99.90;;;;;;5071303;28;20923;-87
2022/01/10 08:06:13;;;;;;;17.47;10.10;;;3.30;99.90;;;;;;5074416;28;20411;-85
2022/01/10 08:08:38;;;;;;;18.33;10.23;;;3.30;99.90;;;;;;5074943;28;20434;-86
2022/01/10 08:11:04;;;;;;;16.93;10.93;;;3.40;99.90;;;;;;5091782;28;20192;-86
2022/01/10 08:13:29;;;;;;;16.33;10.20;;;3.30;99.90;;;;;;5074900;28;20179;-86
2022/01/10 08:15:55;;;;;;;14.47;10.10;;;3.40;99.90;;;;;;5076004;28;20173;-86
2022/01/10 08:18:20;;;;;;;15.90;9.60;;;3.40;99.90;;;;;;5076019;28;20538;-86
2022/01/10 08:20:46;;;;;;;12.30;8.43;;;3.40;99.90;;;;;;5074161;28;20204;-87
2022/01/10 08:23:13;;;;;;;17.63;11.83;;;3.50;99.90;;;;;;5074539;28;20225;-86
2022/01/10 08:25:38;;;;;;;17.87;11.30;;;3.50;99.90;;;;;;5074509;28;20169;-86
2022/01/10 08:28:04;;;;;;;24.67;11.10;;;3.50;99.90;;;;;;5074505;28;20511;-86
2022/01/10 08:30:30;;;;;;;13.17;9.43;;;3.40;99.90;;;;;;5075801;28;20169;-86
2022/01/10 08:32:55;;;;;;;16.33;11.50;;;3.50;99.90;;;;;;5074521;28;20627;-86
2022/01/10 08:35:21;;;;;;;16.30;10.40;;;3.50;99.90;;;;;;5074144;28;20274;-86
2022/01/10 08:37:47;;;;;;;16.00;9.53;;;3.60;99.90;;;;;;5075800;28;20181;-87
2022/01/10 08:40:13;;;;;;;17.43;9.73;;;3.60;99.90;;;;;;5074520;28;20659;-86
2022/01/10 08:42:39;;;;;;;21.63;12.53;;;3.50;99.90;;;;;;5075581;28;20470;-87
2022/01/10 08:45:08;;;;;;;16.37;10.20;;;3.60;99.90;;;;;;5074211;28;21053;-85
2022/01/10 08:47:33;;;;;;;20.80;11.27;;;3.60;99.90;;;;;;5074359;28;20457;-87
2022/01/10 08:49:59;;;;;;;15.63;10.17;;;3.60;99.90;;;;;;5075099;28;20439;-86
2022/01/10 08:52:25;;;;;;;20.10;12.07;;;3.70;99.90;;;;;;5075355;28;20172;-86
2022/01/10 08:54:50;;;;;;;20.90;11.73;;;3.70;99.90;;;;;;5075375;28;20200;-86
2022/01/10 08:57:17;;;;;;;21.37;11.97;;;3.80;99.90;;;;;;5074101;28;20187;-86
2022/01/10 08:59:43;;;;;;;20.50;12.50;;;3.80;99.90;;;;;;5074071;28;20200;-85
2022/01/10 09:02:09;;;;;;;28.30;12.90;;;3.80;99.90;;;;;;5074025;28;20470;-83
2022/01/10 09:04:34;;;;;;;27.80;13.40;;;3.80;99.90;;;;;;5074884;28;20412;-82
2022/01/10 09:07:02;;;;;;;27.20;16.00;;;3.80;99.90;;;;;;5075056;28;20314;-82
2022/01/10 09:09:29;;;;;;;28.73;13.87;;;3.80;99.90;;;;;;5074930;28;20208;-83
2022/01/10 09:11:54;;;;;;;27.00;13.37;;;3.90;99.90;;;;;;5074969;28;20424;-82
2022/01/10 09:14:21;;;;;;;32.03;16.43;;;3.90;99.90;;;;;;5074923;28;20413;-81
2022/01/10 09:16:47;;;;;;;30.73;15.63;;;3.80;99.90;;;;;;5073799;28;21069;-81
2022/01/10 09:19:14;;;;;;;29.60;16.60;;;3.80;99.90;;;;;;5074898;28;20442;-81
2022/01/10 09:21:41;;;;;;;29.80;15.87;;;3.90;99.90;;;;;;5074364;28;20479;-81
2022/01/10 09:24:06;;;;;;;42.70;17.83;;;3.90;99.90;;;;;;5074668;28;20463;-82
2022/01/10 09:26:32;;;;;;;37.23;16.23;;;3.90;99.90;;;;;;5074759;28;20419;-81
2022/01/10 09:28:59;;;;;;;42.17;19.37;;;3.90;99.90;;;;;;5074762;28;20177;-81
2022/01/10 09:31:25;;;;;;;31.40;17.30;;;4.00;99.90;;;;;;5074710;28;20177;-80
2022/01/10 09:33:54;;;;;;;30.37;15.37;;;3.90;99.90;;;;;;5073371;28;20415;-81
2022/01/10 09:36:21;;;;;;;27.50;14.60;;;3.80;99.90;;;;;;5074322;28;20423;-82
2022/01/10 09:38:46;;;;;;;34.83;18.80;;;3.80;99.90;;;;;;5073269;28;20430;-81
2022/01/10 09:41:12;;;;;;;37.20;17.67;;;3.80;99.90;;;;;;5074508;28;21038;-81
2022/01/10 09:43:38;;;;;;;28.60;16.50;;;3.90;99.90;;;;;;5074523;28;20169;-81
2022/01/10 09:46:03;;;;;;;32.30;18.00;;;4.00;99.90;;;;;;5074397;28;20179;-81
2022/01/10 09:48:29;;;;;;;32.17;16.10;;;3.90;99.90;;;;;;5074284;28;20173;-83
2022/01/10 09:50:54;;;;;;;37.50;18.07;;;4.00;99.90;;;;;;5074093;28;20196;-83
2022/01/10 09:53:21;;;;;;;29.70;17.27;;;4.10;99.90;;;;;;5074266;28;20209;-82
2022/01/10 09:55:48;;;;;;;27.60;17.50;;;4.20;99.90;;;;;;5074229;28;20181;-81
2022/01/10 09:58:14;;;;;;;31.07;16.93;;;4.30;99.90;;;;;;5074018;28;20772;-82
2022/01/10 10:00:39;;;;;;;33.50;16.40;;;4.40;99.90;;;;;;5074029;28;20419;-81
2022/01/10 10:03:06;;;;;;;30.67;17.20;;;4.40;99.90;;;;;;5074048;28;20177;-82
2022/01/10 10:05:32;;;;;;;33.93;17.63;;;4.60;99.90;;;;;;5073651;28;20169;-81
2022/01/10 10:07:57;;;;;;;27.13;16.20;;;4.60;99.90;;;;;;5073918;28;20763;-82
2022/01/10 10:10:23;;;;;;;31.03;16.17;;;4.70;99.90;;;;;;5074006;28;20326;-81
2022/01/10 10:12:50;;;;;;;28.97;15.80;;;4.80;99.90;;;;;;5073886;28;20174;-82
2022/01/10 10:15:20;;;;;;;28.27;15.67;;;4.80;99.90;;;;;;5073923;28;20174;-81
2022/01/10 10:17:46;;;;;;;33.77;17.60;;;4.70;99.90;;;;;;5073757;28;20420;-82
2022/01/10 10:20:15;;;;;;;31.97;17.63;;;4.70;99.90;;;;;;5073378;28;20466;-82
2022/01/10 10:22:44;;;;;;;29.43;15.63;;;4.70;99.90;;;;;;5073529;28;20475;-81
2022/01/10 10:25:11;;;;;;;31.03;16.43;;;4.70;99.90;;;;;;5073707;28;20411;-81
2022/01/10 10:27:38;;;;;;;31.97;16.37;;;4.80;99.90;;;;;;5073198;28;20427;-81
2022/01/10 10:30:08;;;;;;;30.03;18.03;;;4.80;99.90;;;;;;5073609;28;20439;-81
2022/01/10 10:32:33;;;;;;;29.67;15.97;;;4.80;99.90;;;;;;5088483;28;20769;-81
2022/01/10 10:34:59;;;;;;;25.23;16.47;;;4.90;99.90;;;;;;5071866;28;20426;-81
2022/01/10 10:37:27;;;;;;;25.33;15.87;;;4.90;99.90;;;;;;5073398;28;20234;-81
2022/01/10 10:39:57;;;;;;;24.17;13.70;;;4.80;99.90;;;;;;5073444;28;20228;-81
2022/01/10 10:42:28;;;;;;;27.30;16.40;;;4.90;99.90;;;;;;5073355;28;20954;-82
2022/01/10 10:44:54;;;;;;;29.83;18.53;;;5.00;99.90;;;;;;5073556;28;20412;-81
2022/01/10 10:47:21;;;;;;;27.47;15.77;;;5.10;99.90;;;;;;5073370;28;20423;-82
2022/01/10 10:49:50;;;;;;;25.30;15.30;;;5.00;99.90;;;;;;5072939;28;20408;-81
2022/01/10 10:52:16;;;;;;;28.77;16.30;;;5.00;99.90;;;;;;5073570;28;20412;-88
2022/01/10 10:54:42;;;;;;;27.67;16.40;;;4.90;99.90;;;;;;5071702;28;20419;-89
2022/01/10 10:57:10;;;;;;;27.83;16.60;;;4.80;99.90;;;;;;5073097;28;20178;-87
2022/01/10 10:59:40;;;;;;;23.03;14.27;;;4.80;99.90;;;;;;5074800;28;20391;-89
2022/01/10 11:02:06;;;;;;;25.80;15.10;;;4.80;99.90;;;;;;5074476;28;20478;-89
2022/01/10 11:04:31;;;;;;;26.80;15.43;;;4.70;99.90;;;;;;5072633;28;20408;-87
2022/01/10 11:06:58;;;;;;;24.03;14.83;;;4.70;99.90;;;;;;5070906;28;20425;-87
2022/01/10 11:09:25;;;;;;;25.80;16.07;;;4.90;99.90;;;;;;5072289;28;20167;-87
2022/01/10 11:11:51;;;;;;;25.27;15.50;;;5.10;99.90;;;;;;5072113;28;20422;-87
2022/01/10 11:14:18;;;;;;;24.07;14.80;;;4.90;99.90;;;;;;5072026;28;20420;-86
2022/01/10 11:16:46;;;;;;;31.20;17.67;;;5.10;99.90;;;;;;5070861;28;20422;-87
2022/01/10 11:19:15;;;;;;;23.00;15.97;;;5.10;99.90;;;;;;5071589;28;20444;-87
2022/01/10 11:21:46;;;;;;;26.37;16.83;;;5.10;99.90;;;;;;5087508;28;20475;-87
2022/01/10 11:24:11;;;;;;;25.23;15.90;;;5.20;99.90;;;;;;5071911;28;20455;-87
2022/01/10 11:26:43;;;;;;;29.17;17.67;;;5.20;99.90;;;;;;5071790;28;20955;-86
2022/01/10 11:29:09;;;;;;;32.07;15.53;;;5.30;99.90;;;;;;5072479;28;20165;-89
2022/01/10 11:31:39;;;;;;;27.03;15.07;;;5.20;99.90;;;;;;5070604;28;20425;-84
2022/01/10 11:34:05;;;;;;;32.17;17.20;;;5.30;99.90;;;;;;5071564;28;20166;-86
2022/01/10 11:36:31;;;;;;;30.30;16.23;;;5.30;99.90;;;;;;5071639;28;20426;-85
2022/01/10 11:38:59;;;;;;;32.23;18.60;;;5.30;99.90;;;;;;5071905;28;20775;-85
2022/01/10 11:41:30;;;;;;;27.73;15.33;;;5.30;99.90;;;;;;5075712;28;20196;-85
2022/01/10 11:44:07;;;;;;;23.97;14.70;;;5.40;99.90;;;;;;5076017;28;20412;-87
2022/01/10 11:46:35;;;;;;;26.50;14.17;;;5.20;99.90;;;;;;5077000;28;20390;-88
2022/01/10 11:49:09;;;;;;;25.43;16.13;;;5.10;99.90;;;;;;5074628;28;20424;-88
2022/01/10 11:51:39;;;;;;;30.37;16.50;;;5.00;99.90;;;;;;5074332;28;20421;-84
2022/01/10 11:54:14;;;;;;;25.60;17.30;;;4.90;99.90;;;;;;5075548;28;20931;-86
2022/01/10 11:56:51;;;;;;;26.50;17.50;;;4.90;99.90;;;;;;5075561;28;20912;-87
2022/01/10 11:59:25;;;;;;;30.87;17.70;;;5.10;99.90;;;;;;5074097;28;20429;-86
2022/01/10 12:02:05;;;;;;;31.30;17.80;;;5.20;99.90;;;;;;5075178;28;20467;-86
2022/01/10 12:04:36;;;;;;;21.57;14.63;;;5.10;99.90;;;;;;5075025;28;20407;-86
2022/01/10 12:07:04;;;;;;;20.70;13.50;;;5.00;99.90;;;;;;5075135;28;20434;-85
2022/01/10 12:09:30;;;;;;;22.90;14.70;;;5.00;99.90;;;;;;5073924;28;20427;-86
2022/01/10 12:11:58;;;;;;;27.43;15.40;;;4.80;99.90;;;;;;5075119;28;20427;-86
2022/01/10 12:14:24;;;;;;;22.23;13.60;;;4.90;99.90;;;;;;5075026;28;20408;-86
2022/01/10 12:16:50;;;;;;;29.13;16.17;;;4.80;99.90;;;;;;5073681;28;20433;-86
2022/01/10 12:19:16;;;;;;;27.90;16.60;;;4.80;99.90;;;;;;5073246;28;20184;-87
2022/01/10 12:21:42;;;;;;;28.47;16.77;;;4.60;99.90;;;;;;5074888;28;20477;-86
2022/01/10 12:24:09;;;;;;;28.20;18.00;;;4.60;99.90;;;;;;5074750;28;20236;-88
2022/01/10 12:26:35;;;;;;;29.13;18.33;;;4.60;99.90;;;;;;5075047;28;20170;-87
2022/01/10 12:29:02;;;;;;;31.00;15.67;;;4.50;99.90;;;;;;5075133;28;20907;-86
2022/01/10 12:31:29;;;;;;;28.83;15.47;;;4.40;99.90;;;;;;5074978;28;20415;-86
2022/01/10 12:34:16;;;;;;;26.37;14.97;;;4.40;99.90;;;;;;5074461;28;20427;-86
2022/01/10 12:36:42;;;;;;;25.53;14.60;;;4.40;99.90;;;;;;5072848;28;20475;-88
2022/01/10 12:39:18;;;;;;;22.07;14.33;;;4.40;99.90;;;;;;5074742;28;20415;-85
2022/01/10 12:41:44;;;;;;;23.87;14.43;;;4.40;99.90;;;;;;5073257;28;20814;-87
2022/01/10 12:44:09;;;;;;;19.07;12.47;;;4.50;99.90;;;;;;5075449;28;20747;-87
2022/01/10 12:46:36;;;;;;;23.63;13.37;;;4.60;99.90;;;;;;5075130;28;20404;-86
2022/01/10 12:49:08;;;;;;;20.90;13.57;;;4.60;99.90;;;;;;5073741;28;20178;-84
2022/01/10 12:51:49;;;;;;;24.53;15.70;;;4.70;99.90;;;;;;5054155;28;20411;-84
2022/01/10 12:54:17;;;;;;;24.57;13.40;;;4.70;99.90;;;;;;5054601;28;20521;-84